createdAt,value
2022-07-25T00:02:25.880Z,69.60
2022-07-25T00:04:57.830Z,69.45
2022-07-25T00:07:27.171Z,69.52
2022-07-25T00:09:56.180Z,69.90
2022-07-25T00:12:25.399Z,69.42
2022-07-25T00:14:55.844Z,69.18
2022-07-25T00:17:24.778Z,69.30
2022-07-25T00:19:53.534Z,69.93
2022-07-25T00:22:22.582Z,69.20
2022-07-25T00:24:52.035Z,68.93
2022-07-25T00:27:20.902Z,69.38
2022-07-25T00:29:50.350Z,69.70
2022-07-25T00:32:20.609Z,69.96
2022-07-25T00:34:49.950Z,70.58
2022-07-25T00:37:18.907Z,71.12
2022-07-25T00:39:47.659Z,71.25
2022-07-25T00:42:16.445Z,71.47
2022-07-25T00:44:45.344Z,71.41
2022-07-25T00:47:14.900Z,71.02
2022-07-25T00:49:50.789Z,71.29
2022-07-25T00:52:21.221Z,71.37
2022-07-25T00:54:50.324Z,71.44
2022-07-25T00:57:19.580Z,71.37
2022-07-25T00:59:48.744Z,71.42
2022-07-25T01:02:18.027Z,70.84
2022-07-25T01:04:49.178Z,71.33
2022-07-25T01:07:18.965Z,71.47
2022-07-25T01:09:50.862Z,72.59
2022-07-25T01:12:20.723Z,72.76
2022-07-25T01:14:49.681Z,72.47
2022-07-25T01:17:19.315Z,72.60
2022-07-25T01:19:51.616Z,72.22
2022-07-25T01:22:22.105Z,73.11
2022-07-25T01:24:51.892Z,72.81
2022-07-25T01:27:20.827Z,72.94
2022-07-25T01:29:49.879Z,72.95
2022-07-25T01:32:18.740Z,72.01
2022-07-25T01:34:47.957Z,71.78
2022-07-25T01:37:16.667Z,71.94
2022-07-25T01:39:47.399Z,71.60
2022-07-25T01:42:16.389Z,70.89
2022-07-25T01:44:45.319Z,70.76
2022-07-25T01:47:14.215Z,70.95
2022-07-25T01:49:43.741Z,70.77
2022-07-25T01:52:12.769Z,70.85
2022-07-25T01:54:48.158Z,70.75
2022-07-25T01:57:18.343Z,70.56
2022-07-25T01:59:47.246Z,70.79
2022-07-25T02:02:16.233Z,71.14
2022-07-25T02:04:45.256Z,71.10
2022-07-25T02:07:14.251Z,70.88
2022-07-25T02:09:46.367Z,71.16
2022-07-25T02:12:15.481Z,71.43
2022-07-25T02:14:46.512Z,71.43
2022-07-25T02:17:15.585Z,71.27
2022-07-25T02:19:44.727Z,71.38
2022-07-25T02:22:13.848Z,71.00
2022-07-25T02:24:44.928Z,70.03
2022-07-25T02:27:14.410Z,69.98
2022-07-25T02:29:44.764Z,69.64
2022-07-25T02:32:13.876Z,69.36
2022-07-25T02:34:42.939Z,68.97
2022-07-25T02:37:13.113Z,68.67
2022-07-25T02:39:42.141Z,68.78
2022-07-25T02:42:11.229Z,68.64
2022-07-25T02:44:40.606Z,68.45
2022-07-25T02:47:11.416Z,67.76
2022-07-25T02:49:40.865Z,66.85
2022-07-25T02:52:10.735Z,66.15
2022-07-25T02:54:39.358Z,65.96
2022-07-25T02:57:13.115Z,65.48
2022-07-25T02:59:42.887Z,64.67
2022-07-25T03:02:13.499Z,64.40
2022-07-25T03:04:42.846Z,64.48
2022-07-25T03:07:16.393Z,64.61
2022-07-25T03:09:45.223Z,64.50
2022-07-25T03:12:16.710Z,64.13
2022-07-25T03:14:45.771Z,64.08
2022-07-25T03:17:18.847Z,63.90
2022-07-25T03:19:48.145Z,63.87
2022-07-25T03:22:17.177Z,63.12
2022-07-25T03:24:45.754Z,63.05
2022-07-25T03:27:18.399Z,62.47
2022-07-25T03:29:49.515Z,62.51
2022-07-25T03:32:20.824Z,62.64
2022-07-25T03:34:53.205Z,61.87
2022-07-25T03:37:22.654Z,61.98
2022-07-25T03:39:58.306Z,61.76
2022-07-25T03:42:32.175Z,61.39
2022-07-25T03:45:03.925Z,61.12
2022-07-25T03:47:34.956Z,61.58
2022-07-25T03:50:04.206Z,61.41
2022-07-25T03:52:38.201Z,61.16
2022-07-25T03:55:10.347Z,61.43
2022-07-25T03:57:40.280Z,62.00
2022-07-25T04:00:12.562Z,62.07
2022-07-25T04:02:43.330Z,62.10
2022-07-25T04:05:12.782Z,62.10
2022-07-25T04:07:41.766Z,62.12
2022-07-25T04:10:12.474Z,62.05
2022-07-25T04:12:41.538Z,62.32
2022-07-25T04:15:11.676Z,63.13
2022-07-25T04:17:41.944Z,62.20
2022-07-25T04:20:11.714Z,61.58
2022-07-25T04:22:46.291Z,60.83
2022-07-25T04:25:15.759Z,60.96
2022-07-25T04:27:44.688Z,60.06
2022-07-25T04:30:24.722Z,60.34
2022-07-25T04:32:56.758Z,59.69
2022-07-25T04:35:25.966Z,59.39
2022-07-25T04:37:55.070Z,59.69
2022-07-25T04:40:24.098Z,58.62
2022-07-25T04:42:53.029Z,59.50
2022-07-25T04:45:25.209Z,59.25
2022-07-25T04:47:55.487Z,59.43
2022-07-25T04:50:25.219Z,58.23
2022-07-25T04:52:54.321Z,57.53
2022-07-25T04:55:23.416Z,58.35
2022-07-25T04:57:53.155Z,57.03
2022-07-25T05:00:24.008Z,57.27
2022-07-25T05:02:54.855Z,56.31
2022-07-25T05:05:23.989Z,55.69
2022-07-25T05:07:57.789Z,55.37
2022-07-25T05:10:28.978Z,54.74
2022-07-25T05:12:58.715Z,53.97
2022-07-25T05:15:28.426Z,53.16
2022-07-25T05:17:59.085Z,52.59
2022-07-25T05:20:28.333Z,51.81
2022-07-25T05:22:57.279Z,48.84
2022-07-25T05:25:26.559Z,46.02
2022-07-25T05:28:00.012Z,44.06
2022-07-25T05:30:29.513Z,42.80
2022-07-25T05:32:59.855Z,40.99
2022-07-25T05:35:29.272Z,40.30
2022-07-25T05:37:58.427Z,39.59
2022-07-25T05:40:27.672Z,39.85
2022-07-25T05:43:00.941Z,39.91
2022-07-25T05:45:31.990Z,40.11
2022-07-25T05:48:03.634Z,40.81
2022-07-25T05:50:32.801Z,42.06
2022-07-25T05:53:02.280Z,40.82
2022-07-25T05:55:31.027Z,40.32
2022-07-25T05:58:00.296Z,39.06
2022-07-25T06:00:32.409Z,38.97
2022-07-25T06:03:03.249Z,38.37
2022-07-25T06:05:34.343Z,39.00
2022-07-25T06:08:03.106Z,39.58
2022-07-25T06:10:32.284Z,38.04
2022-07-25T06:13:05.827Z,38.19
2022-07-25T06:15:36.677Z,39.97
2022-07-25T06:18:07.195Z,40.88
2022-07-25T06:20:36.425Z,40.70
2022-07-25T06:23:06.317Z,40.28
2022-07-25T06:25:35.197Z,38.49
2022-07-25T06:28:05.440Z,37.92
2022-07-25T06:30:39.267Z,36.81
2022-07-25T06:33:09.522Z,37.39
2022-07-25T06:35:40.286Z,36.97
2022-07-25T06:38:11.921Z,37.95
2022-07-25T06:40:42.394Z,38.67
2022-07-25T06:43:11.417Z,38.39
2022-07-25T06:45:40.143Z,36.98
2022-07-25T06:48:10.372Z,37.85
2022-07-25T06:50:39.500Z,37.89
2022-07-25T06:53:08.803Z,37.30
2022-07-25T06:55:37.852Z,35.99
2022-07-25T06:58:06.988Z,34.93
2022-07-25T07:00:35.949Z,34.27
2022-07-25T07:03:05.095Z,32.89
2022-07-25T07:05:37.806Z,32.82
2022-07-25T07:08:07.749Z,34.03
2022-07-25T07:10:36.577Z,33.42
2022-07-25T07:13:09.903Z,33.29
2022-07-25T07:15:40.030Z,33.16
2022-07-25T07:18:09.800Z,31.65
2022-07-25T07:20:40.460Z,31.86
2022-07-25T07:23:12.095Z,32.46
2022-07-25T07:25:47.570Z,31.57
2022-07-25T07:28:17.648Z,32.67
2022-07-25T07:33:38.779Z,32.53
2022-07-25T07:36:11.317Z,32.91
2022-07-25T07:38:41.809Z,33.85
2022-07-25T07:41:10.821Z,33.53
2022-07-25T07:43:40.056Z,34.17
2022-07-25T07:46:09.224Z,35.27
2022-07-25T07:48:40.249Z,35.38
2022-07-25T07:51:10.483Z,35.03
2022-07-25T07:53:57.063Z,34.74
2022-07-25T07:56:25.707Z,31.90
2022-07-25T07:58:54.962Z,29.86
2022-07-25T08:01:27.548Z,29.50
2022-07-25T08:03:57.045Z,30.21
2022-07-25T08:06:28.846Z,31.81
2022-07-25T08:08:57.669Z,31.28
2022-07-25T08:11:28.873Z,31.14
2022-07-25T08:13:58.841Z,31.06
2022-07-25T08:16:27.674Z,30.35
2022-07-25T08:18:57.437Z,30.12
2022-07-25T08:21:28.101Z,30.02
2022-07-25T08:23:57.189Z,29.32
2022-07-25T08:26:28.056Z,30.77
2022-07-25T08:29:17.706Z,29.39
2022-07-25T08:31:47.229Z,28.63
2022-07-25T08:34:16.549Z,29.27
2022-07-25T08:36:47.218Z,29.09
2022-07-25T08:39:17.992Z,29.83
2022-07-25T08:41:48.725Z,29.90
2022-07-25T08:44:21.627Z,31.23
2022-07-25T08:46:52.160Z,30.92
2022-07-25T08:49:23.321Z,30.46
2022-07-25T08:52:07.405Z,30.44
2022-07-25T08:54:38.085Z,29.76
2022-07-25T08:57:07.431Z,28.28
2022-07-25T08:59:36.780Z,28.36
2022-07-25T09:02:08.586Z,28.02
2022-07-25T09:04:40.825Z,27.21
2022-07-25T09:07:11.639Z,26.31
2022-07-25T09:09:41.250Z,26.71
2022-07-25T09:12:11.173Z,26.98
2022-07-25T09:14:45.077Z,26.76
2022-07-25T09:17:22.340Z,26.82
2022-07-25T09:19:57.309Z,26.65
2022-07-25T09:22:30.536Z,27.41
2022-07-25T09:25:00.437Z,28.22
2022-07-25T09:27:36.061Z,26.02
2022-07-25T09:30:15.748Z,27.15
2022-07-25T09:32:45.147Z,27.77
2022-07-25T09:35:14.711Z,28.37
2022-07-25T09:37:45.137Z,29.49
2022-07-25T09:40:16.703Z,27.88
2022-07-25T09:42:52.812Z,27.89
2022-07-25T09:45:22.794Z,26.28
2022-07-25T09:47:55.720Z,25.64
2022-07-25T09:50:29.288Z,27.04
2022-07-25T09:53:03.516Z,26.99
2022-07-25T09:55:34.123Z,26.96
2022-07-25T09:58:05.086Z,26.80
2022-07-25T10:00:34.492Z,28.81
2022-07-25T10:03:25.917Z,30.17
2022-07-25T10:06:21.899Z,29.36
2022-07-25T10:08:54.822Z,29.41
2022-07-25T10:11:32.109Z,28.88
2022-07-25T10:14:13.205Z,29.59
2022-07-25T10:16:48.702Z,28.25
2022-07-25T10:19:17.550Z,27.36
2022-07-25T10:21:57.430Z,29.00
2022-07-25T10:24:35.808Z,28.85
2022-07-25T10:27:11.704Z,28.50
2022-07-25T10:29:42.564Z,29.15
2022-07-25T10:32:15.624Z,28.31
2022-07-25T10:34:54.823Z,28.60
2022-07-25T10:37:32.722Z,28.96
2022-07-25T10:40:04.252Z,29.76
2022-07-25T10:42:36.067Z,28.98
2022-07-25T10:45:10.564Z,28.76
2022-07-25T10:47:55.968Z,29.00
2022-07-25T10:50:53.608Z,29.83
2022-07-25T10:53:15.712Z,29.03
2022-07-25T10:56:04.860Z,29.01
2022-07-25T10:58:53.431Z,29.41
2022-07-25T11:01:27.763Z,29.25
2022-07-25T11:04:03.641Z,28.33
2022-07-25T11:06:36.323Z,28.11
2022-07-25T11:09:18.535Z,27.83
2022-07-25T11:11:51.993Z,28.86
2022-07-25T11:14:23.863Z,28.56
2022-07-25T11:16:56.297Z,28.80
2022-07-25T11:19:28.649Z,29.94
2022-07-25T11:22:00.594Z,30.67
2022-07-25T11:24:37.987Z,30.97
2022-07-25T11:27:13.064Z,30.43
2022-07-25T11:29:42.762Z,30.78
2022-07-25T11:32:14.437Z,31.41
2022-07-25T11:34:48.137Z,31.80
2022-07-25T11:37:18.686Z,31.42
2022-07-25T11:39:52.960Z,30.97
2022-07-25T11:42:23.897Z,30.96
2022-07-25T11:44:54.655Z,32.28
2022-07-25T11:47:31.037Z,31.85
2022-07-25T11:50:04.968Z,31.62
2022-07-25T11:52:37.640Z,30.72
2022-07-25T11:55:09.970Z,30.84
2022-07-25T11:57:44.591Z,30.22
2022-07-25T12:00:20.895Z,31.04
2022-07-25T12:02:52.182Z,30.77
2022-07-25T12:05:23.163Z,30.65
2022-07-25T12:07:56.084Z,29.72
2022-07-25T12:10:33.396Z,29.64
2022-07-25T12:13:06.460Z,29.35
2022-07-25T12:15:41.078Z,29.05
2022-07-25T12:18:12.865Z,29.09
2022-07-25T12:20:45.800Z,29.00
2022-07-25T12:23:18.534Z,29.19
2022-07-25T12:25:52.424Z,28.46
2022-07-25T12:28:23.914Z,29.17
2022-07-25T12:30:56.888Z,28.63
2022-07-25T12:33:26.160Z,29.18
2022-07-25T12:35:55.182Z,30.20
2022-07-25T12:38:25.306Z,30.24
2022-07-25T12:40:57.718Z,30.32
2022-07-25T12:43:28.622Z,30.73
2022-07-25T12:45:58.413Z,31.77
2022-07-25T12:48:27.779Z,32.35
2022-07-25T12:50:57.706Z,31.85
2022-07-25T12:53:26.600Z,32.90
2022-07-25T12:55:55.642Z,33.97
2022-07-25T12:58:29.062Z,33.84
2022-07-25T13:01:01.900Z,33.66
2022-07-25T13:03:32.973Z,34.13
2022-07-25T13:06:02.055Z,34.56
2022-07-25T13:08:33.303Z,35.30
2022-07-25T13:11:09.559Z,34.19
2022-07-25T13:13:40.076Z,34.60
2022-07-25T13:16:09.276Z,34.35
2022-07-25T13:18:38.242Z,34.23
2022-07-25T13:21:11.123Z,35.56
2022-07-25T13:23:41.067Z,36.13
2022-07-25T13:26:11.174Z,34.75
2022-07-25T13:28:43.687Z,36.10
2022-07-25T13:31:13.026Z,34.84
2022-07-25T13:33:42.127Z,34.02
2022-07-25T13:36:11.685Z,33.27
2022-07-25T13:38:41.733Z,33.31
2022-07-25T13:41:13.817Z,30.66
2022-07-25T13:43:48.190Z,30.52
2022-07-25T13:46:17.802Z,28.56
2022-07-25T13:48:46.955Z,29.44
2022-07-25T13:51:16.006Z,31.13
2022-07-25T13:53:48.484Z,33.10
2022-07-25T13:56:20.631Z,31.13
2022-07-25T13:58:51.310Z,31.81
2022-07-25T14:01:20.455Z,30.93
2022-07-25T14:03:49.904Z,29.36
2022-07-25T14:06:18.973Z,32.25
2022-07-25T14:08:48.218Z,29.22
2022-07-25T14:11:17.030Z,29.69
2022-07-25T14:13:46.913Z,29.04
2022-07-25T14:16:19.558Z,29.96
2022-07-25T14:18:48.479Z,31.04
2022-07-25T14:21:17.411Z,31.62
2022-07-25T14:23:46.377Z,32.09
2022-07-25T14:26:15.251Z,32.68
2022-07-25T14:28:53.669Z,33.59
2022-07-25T14:31:24.220Z,33.61
2022-07-25T14:33:56.381Z,34.14
2022-07-25T14:36:25.433Z,34.65
2022-07-25T14:38:54.684Z,34.44
2022-07-25T14:41:24.526Z,34.70
2022-07-25T14:43:58.358Z,35.99
2022-07-25T14:46:31.659Z,36.15
2022-07-25T14:49:01.574Z,36.03
2022-07-25T14:51:30.730Z,36.36
2022-07-25T14:54:01.288Z,36.25
2022-07-25T14:56:30.966Z,37.82
2022-07-25T14:59:00.503Z,38.29
2022-07-25T15:01:30.941Z,38.78
2022-07-25T15:04:00.379Z,38.88
2022-07-25T15:06:35.479Z,38.26
2022-07-25T15:09:04.661Z,38.99
2022-07-25T15:11:33.909Z,38.12
2022-07-25T15:14:02.786Z,38.74
2022-07-25T15:16:34.555Z,38.62
2022-07-25T15:19:16.354Z,40.45
2022-07-25T15:21:46.697Z,73.24
2022-07-25T15:24:15.880Z,96.71
2022-07-25T15:26:46.141Z,100.00
2022-07-25T15:29:20.824Z,100.00
2022-07-25T15:31:52.300Z,100.00
2022-07-25T15:34:21.159Z,100.00
2022-07-25T15:36:50.535Z,100.00
2022-07-25T15:39:19.732Z,100.00
2022-07-25T15:41:49.136Z,100.00
2022-07-25T15:44:18.060Z,100.00
2022-07-25T15:46:51.307Z,100.00
2022-07-25T15:49:22.320Z,100.00
2022-07-25T15:51:52.071Z,100.00
2022-07-25T15:54:23.936Z,100.00
2022-07-25T15:56:55.280Z,100.00
2022-07-25T15:59:24.501Z,100.00
2022-07-25T16:01:55.070Z,100.00
2022-07-25T16:04:24.062Z,100.00
2022-07-25T16:06:53.113Z,100.00
2022-07-25T16:09:22.324Z,100.00
2022-07-25T16:11:51.276Z,100.00
2022-07-25T16:14:20.305Z,100.00
2022-07-25T16:16:49.479Z,100.00
2022-07-25T16:19:19.865Z,100.00
2022-07-25T16:21:48.815Z,100.00
2022-07-25T16:24:17.711Z,100.00
2022-07-25T16:26:48.197Z,100.00
2022-07-25T16:29:18.512Z,100.00
2022-07-25T16:31:48.841Z,100.00
2022-07-25T16:34:19.330Z,100.00
2022-07-25T16:36:48.456Z,100.00
2022-07-25T16:39:17.832Z,100.00
2022-07-25T16:41:46.585Z,100.00
2022-07-25T16:44:17.239Z,100.00
2022-07-25T16:46:47.279Z,100.00
2022-07-25T16:49:16.484Z,100.00
2022-07-25T16:51:47.668Z,100.00
2022-07-25T16:54:17.052Z,100.00
2022-07-25T16:56:50.243Z,100.00
2022-07-25T16:59:21.865Z,100.00
2022-07-25T17:01:53.730Z,100.00
2022-07-25T17:04:25.593Z,100.00
2022-07-25T17:06:56.379Z,100.00
2022-07-25T17:09:25.393Z,100.00
2022-07-25T17:11:54.602Z,100.00
2022-07-25T17:14:29.446Z,100.00
2022-07-25T17:16:59.157Z,100.00
2022-07-25T17:19:28.429Z,100.00
2022-07-25T17:21:58.794Z,100.00
2022-07-25T17:24:27.822Z,100.00
2022-07-25T17:26:57.097Z,100.00
2022-07-25T17:29:27.802Z,100.00
2022-07-25T17:31:56.883Z,100.00
2022-07-25T17:34:26.972Z,100.00
2022-07-25T17:37:02.857Z,100.00
2022-07-25T17:39:32.400Z,100.00
2022-07-25T17:42:02.391Z,100.00
2022-07-25T17:44:31.153Z,100.00
2022-07-25T17:46:59.942Z,100.00
2022-07-25T17:49:29.339Z,100.00
2022-07-25T17:52:00.199Z,100.00
2022-07-25T17:54:28.910Z,100.00
2022-07-25T17:56:58.880Z,100.00
2022-07-25T17:59:28.130Z,100.00
2022-07-25T18:01:57.245Z,100.00
2022-07-25T18:04:26.495Z,100.00
2022-07-25T18:06:55.833Z,100.00
2022-07-25T18:09:26.445Z,100.00
2022-07-25T18:12:00.186Z,100.00
2022-07-25T18:14:29.240Z,100.00
2022-07-25T18:16:59.194Z,100.00
2022-07-25T18:19:28.330Z,100.00
2022-07-25T18:21:57.101Z,100.00
2022-07-25T18:24:29.501Z,100.00
2022-07-25T18:27:00.397Z,100.00
2022-07-25T18:29:38.997Z,100.00
2022-07-25T18:32:09.240Z,100.00
2022-07-25T18:34:38.052Z,100.00
2022-07-25T18:37:07.810Z,100.00
2022-07-25T18:39:38.665Z,100.00
2022-07-25T18:42:08.228Z,100.00
2022-07-25T18:44:37.312Z,100.00
2022-07-25T18:47:07.240Z,100.00
2022-07-25T18:49:36.034Z,100.00
2022-07-25T18:52:05.434Z,100.00
2022-07-25T18:54:34.680Z,100.00
2022-07-25T18:57:07.319Z,100.00
2022-07-25T18:59:37.632Z,100.00
2022-07-25T19:02:07.370Z,100.00
2022-07-25T19:04:37.817Z,100.00
2022-07-25T19:07:06.875Z,100.00
2022-07-25T19:09:36.200Z,100.00
2022-07-25T19:12:07.252Z,100.00
2022-07-25T19:14:36.646Z,100.00
2022-07-25T19:17:06.108Z,100.00
2022-07-25T19:19:35.674Z,100.00
2022-07-25T19:22:04.537Z,100.00
2022-07-25T19:24:33.701Z,100.00
2022-07-25T19:27:04.742Z,100.00
2022-07-25T19:29:34.901Z,100.00
2022-07-25T19:32:04.010Z,100.00
2022-07-25T19:34:32.844Z,100.00
2022-07-25T19:37:02.373Z,100.00
2022-07-25T19:39:31.385Z,100.00
2022-07-25T19:42:00.545Z,100.00
2022-07-25T19:44:30.511Z,100.00
2022-07-25T19:47:02.070Z,100.00
2022-07-25T19:49:31.393Z,100.00
2022-07-25T19:52:00.182Z,100.00
2022-07-25T19:54:29.142Z,100.00
2022-07-25T19:57:00.132Z,100.00
2022-07-25T19:59:29.067Z,100.00
2022-07-25T20:02:02.559Z,100.00
2022-07-25T20:04:34.690Z,100.00
2022-07-25T20:07:03.499Z,100.00
2022-07-25T20:09:34.116Z,100.00
2022-07-25T20:12:03.736Z,100.00
2022-07-25T20:14:32.733Z,100.00
2022-07-25T20:17:03.373Z,100.00
2022-07-25T20:19:32.142Z,100.00
2022-07-25T20:22:01.276Z,100.00
2022-07-25T20:24:30.229Z,100.00
2022-07-25T20:26:59.071Z,100.00
2022-07-25T20:29:27.845Z,100.00
2022-07-25T20:31:56.919Z,100.00
2022-07-25T20:34:27.156Z,100.00
2022-07-25T20:36:56.527Z,100.00
2022-07-25T20:39:26.529Z,100.00
2022-07-25T20:41:57.490Z,100.00
2022-07-25T20:44:26.933Z,100.00
2022-07-25T20:46:55.935Z,100.00
2022-07-25T20:49:28.314Z,100.00
2022-07-25T20:51:57.165Z,100.00
2022-07-25T20:54:26.881Z,100.00
2022-07-25T20:56:56.314Z,100.00
2022-07-25T20:59:24.977Z,100.00
2022-07-25T21:01:53.977Z,100.00
2022-07-25T21:04:23.844Z,100.00
2022-07-25T21:06:56.759Z,100.00
2022-07-25T21:09:29.602Z,100.00
2022-07-25T21:12:03.011Z,100.00
2022-07-25T21:14:31.986Z,100.00
2022-07-25T21:17:01.837Z,100.00
2022-07-25T21:19:31.141Z,100.00
2022-07-25T21:22:02.879Z,100.00
2022-07-25T21:24:33.148Z,100.00
2022-07-25T21:27:02.073Z,100.00
2022-07-25T21:29:31.021Z,100.00
2022-07-25T21:32:00.276Z,100.00
2022-07-25T21:34:29.379Z,100.00
2022-07-25T21:36:58.255Z,100.00
2022-07-25T21:39:28.642Z,100.00
2022-07-25T21:41:57.795Z,100.00
2022-07-25T21:44:27.639Z,100.00
2022-07-25T21:46:56.638Z,100.00
2022-07-25T21:49:43.286Z,100.00
2022-07-25T21:52:13.924Z,100.00
2022-07-25T21:54:45.044Z,100.00
2022-07-25T21:57:14.383Z,100.00
2022-07-25T21:59:44.301Z,100.00
2022-07-25T22:02:14.062Z,100.00
2022-07-25T22:04:42.883Z,100.00
2022-07-25T22:07:12.101Z,100.00
2022-07-25T22:09:40.869Z,100.00
2022-07-25T22:12:11.699Z,100.00
2022-07-25T22:14:40.968Z,100.00
2022-07-25T22:17:10.472Z,100.00
2022-07-25T22:19:39.500Z,100.00
2022-07-25T22:22:09.248Z,100.00
2022-07-25T22:24:39.958Z,100.00
2022-07-25T22:27:13.326Z,100.00
2022-07-25T22:29:42.050Z,100.00
2022-07-25T22:32:10.893Z,100.00
2022-07-25T22:34:39.877Z,100.00
2022-07-25T22:37:08.671Z,100.00
2022-07-25T22:39:37.807Z,100.00
2022-07-25T22:42:07.213Z,100.00
2022-07-25T22:44:37.586Z,100.00
2022-07-25T22:47:06.884Z,100.00
2022-07-25T22:49:35.699Z,100.00
2022-07-25T22:52:05.165Z,100.00
2022-07-25T22:54:34.082Z,100.00
2022-07-25T22:57:03.320Z,100.00
2022-07-25T22:59:32.802Z,100.00
2022-07-25T23:02:03.065Z,100.00
2022-07-25T23:04:32.032Z,100.00
2022-07-25T23:07:01.022Z,100.00
2022-07-25T23:09:36.392Z,100.00
2022-07-25T23:12:06.543Z,100.00
2022-07-25T23:14:35.358Z,100.00
2022-07-25T23:17:21.594Z,100.00
2022-07-25T23:19:53.973Z,100.00
2022-07-25T23:22:25.809Z,100.00
2022-07-25T23:24:55.069Z,100.00
2022-07-25T23:27:24.445Z,100.00
2022-07-25T23:29:53.896Z,100.00
2022-07-25T23:32:24.312Z,100.00
2022-07-25T23:34:53.269Z,100.00
2022-07-25T23:37:25.216Z,100.00
2022-07-25T23:39:54.285Z,100.00
2022-07-25T23:42:23.615Z,100.00
2022-07-25T23:44:52.861Z,100.00
2022-07-25T23:47:26.809Z,100.00
2022-07-25T23:50:11.067Z,100.00
2022-07-25T23:52:40.689Z,100.00
2022-07-25T23:55:11.407Z,100.00
2022-07-25T23:57:40.348Z,100.00
